Time;durP1;ratioP1;P1;durP2;ratioP2;P2;SDS_P1;SDS_P2;PMS_P1;PMS_P2;Temp;Humidity;BMP_temperature;BMP_pressure;BME280_temperature;BME280_humidity;BME280_pressure;Samples;Min_cycle;Max_cycle;Signal;HPM_P1;HPM_P2
2022/01/21 00:01:54;;;;;;;8.20;0.88;;;1.70;99.90;;;;;;5043679;28;20026;-61
2022/01/21 00:04:20;;;;;;;13.10;1.33;;;1.70;99.90;;;;;;5043901;28;20053;-62
2022/01/21 00:06:46;;;;;;;4.53;0.90;;;1.70;99.90;;;;;;5044089;28;20113;-62
2022/01/21 00:09:11;;;;;;;8.45;1.10;;;1.70;99.90;;;;;;5045376;28;20061;-62
2022/01/21 00:11:39;;;;;;;14.55;2.53;;;1.70;99.90;;;;;;5044551;28;20025;-61
2022/01/21 00:14:06;;;;;;;13.32;1.77;;;1.80;99.90;;;;;;5044202;28;20404;-61
2022/01/21 00:16:32;;;;;;;7.03;2.13;;;1.80;99.90;;;;;;5035981;28;20519;-61
2022/01/21 00:19:09;;;;;;;8.43;1.48;;;1.80;99.90;;;;;;5042290;28;20037;-61
2022/01/21 00:32:33;;;;;;;18.20;1.73;;;1.90;99.90;;;;;;5039131;28;20425;-61
2022/01/21 00:34:59;;;;;;;15.30;1.60;;;1.80;99.90;;;;;;5046909;28;20029;-61
2022/01/21 00:37:25;;;;;;;5.30;1.35;;;1.80;99.90;;;;;;5038967;28;20102;-61
2022/01/21 00:39:55;;;;;;;14.60;1.48;;;1.70;99.90;;;;;;5046139;28;20045;-62
2022/01/21 00:44:48;;;;;;;10.32;1.33;;;1.70;99.90;;;;;;5043712;28;20037;-62
2022/01/21 00:47:14;;;;;;;10.35;1.55;;;1.60;99.90;;;;;;5043168;28;20033;-61
2022/01/21 00:49:39;;;;;;;10.50;1.23;;;1.60;99.90;;;;;;5043696;28;20048;-61
2022/01/21 00:52:05;;;;;;;7.05;0.90;;;1.60;99.90;;;;;;5043470;28;20052;-61
2022/01/21 00:54:31;;;;;;;14.00;1.33;;;1.60;99.90;;;;;;5040784;28;20034;-62
2022/01/21 00:56:56;;;;;;;12.93;1.05;;;1.70;99.90;;;;;;5038659;28;20136;-63
2022/01/21 00:59:22;;;;;;;10.50;1.27;;;1.70;99.90;;;;;;5035902;28;20036;-62
2022/01/21 01:01:48;;;;;;;5.03;0.88;;;1.70;99.90;;;;;;5042534;28;20492;-64
2022/01/21 01:04:13;;;;;;;6.78;1.45;;;1.70;99.90;;;;;;5043060;28;20131;-62
2022/01/21 01:06:39;;;;;;;9.10;1.85;;;1.70;99.90;;;;;;5041160;28;20489;-62
2022/01/21 01:09:05;;;;;;;9.85;1.15;;;1.70;99.90;;;;;;5039331;28;20029;-61
2022/01/21 01:11:46;;;;;;;5.03;0.80;;;1.60;99.90;;;;;;5043667;28;20074;-61
2022/01/21 01:19:59;;;;;;;5.20;0.63;;;1.60;99.90;;;;;;5042185;28;20402;-62
2022/01/21 01:27:47;;;;;;;11.93;2.03;;;1.50;99.90;;;;;;5031034;28;20119;-62
2022/01/21 01:30:15;;;;;;;15.23;1.17;;;1.50;99.90;;;;;;5038889;28;20038;-61
2022/01/21 01:32:43;;;;;;;6.93;0.95;;;1.50;99.90;;;;;;5039202;28;20053;-62
2022/01/21 01:35:10;;;;;;;3.08;0.93;;;1.50;99.90;;;;;;5042526;28;20531;-61
2022/01/21 01:37:58;;;;;;;10.32;1.13;;;1.50;99.90;;;;;;5040607;28;20033;-61
2022/01/21 01:50:48;;;;;;;11.88;1.95;;;1.70;99.90;;;;;;5034503;28;20063;-61
2022/01/21 01:53:15;;;;;;;6.90;1.05;;;1.70;99.90;;;;;;5041934;28;20041;-61
2022/01/21 01:55:41;;;;;;;9.18;0.85;;;1.70;99.90;;;;;;5043601;28;20423;-62
2022/01/21 01:58:06;;;;;;;8.10;0.90;;;1.80;99.90;;;;;;5041187;28;20112;-61
2022/01/21 02:00:33;;;;;;;21.05;1.63;;;1.80;99.90;;;;;;5040864;28;20112;-61
2022/01/21 02:03:10;;;;;;;4.97;0.50;;;1.90;99.90;;;;;;5038079;28;20033;-61
2022/01/21 02:05:36;;;;;;;15.48;2.35;;;1.90;99.90;;;;;;5037309;28;20029;-61
2022/01/21 02:08:02;;;;;;;7.28;0.80;;;1.90;99.90;;;;;;5038398;28;20440;-61
2022/01/21 02:10:28;;;;;;;4.60;1.08;;;2.00;99.90;;;;;;5037686;28;20040;-61
2022/01/21 02:13:41;;;;;;;3.92;0.47;;;2.00;99.90;;;;;;5040990;28;20045;-62
2022/01/21 02:15:44;;;;;;;4.28;0.82;;;2.10;99.90;;;;;;5032845;28;20034;-65
2022/01/21 02:23:38;;;;;;;6.18;0.70;;;2.10;99.90;;;;;;5040952;28;20053;-61
2022/01/21 02:26:04;;;;;;;5.90;0.32;;;2.00;99.90;;;;;;5037222;28;20026;-62
2022/01/21 02:28:30;;;;;;;7.28;0.77;;;2.00;99.90;;;;;;5037528;28;20033;-62
2022/01/21 02:30:57;;;;;;;3.55;0.60;;;2.00;99.90;;;;;;5041569;28;20028;-62
2022/01/21 02:33:24;;;;;;;6.53;1.67;;;2.00;99.90;;;;;;5041092;28;20083;-62
2022/01/21 02:35:50;;;;;;;5.75;1.02;;;1.90;99.90;;;;;;5041683;28;20094;-62
2022/01/21 02:38:16;;;;;;;2.78;0.63;;;1.90;99.90;;;;;;5036901;28;20490;-61
2022/01/21 02:40:42;;;;;;;8.43;1.20;;;1.80;99.90;;;;;;5037910;28;20025;-61
2022/01/21 02:43:08;;;;;;;4.68;0.50;;;1.70;99.90;;;;;;5040372;28;20400;-61
2022/01/21 02:45:36;;;;;;;5.35;0.50;;;1.70;99.90;;;;;;5041017;28;20032;-62
2022/01/21 02:48:04;;;;;;;2.35;0.32;;;1.70;99.90;;;;;;5034883;28;20156;-61
2022/01/21 02:50:30;;;;;;;6.43;0.68;;;1.60;99.90;;;;;;5039201;28;20094;-61
2022/01/21 02:53:08;;;;;;;9.55;0.68;;;1.60;99.90;;;;;;5038621;28;20505;-61
2022/01/21 02:55:34;;;;;;;7.40;1.27;;;1.60;99.90;;;;;;5034443;28;20064;-62
2022/01/21 02:58:00;;;;;;;3.65;0.40;;;1.60;99.90;;;;;;5038965;28;20069;-61
2022/01/21 03:00:25;;;;;;;2.47;0.38;;;1.60;99.90;;;;;;5038542;28;20123;-61
2022/01/21 03:02:51;;;;;;;4.22;0.88;;;1.60;99.90;;;;;;5041453;28;20036;-62
2022/01/21 03:05:18;;;;;;;5.18;0.63;;;1.60;99.90;;;;;;5037524;28;20040;-61
2022/01/21 03:07:45;;;;;;;3.17;0.20;;;1.50;99.90;;;;;;5035925;28;20489;-61
2022/01/21 03:10:12;;;;;;;2.67;0.52;;;1.50;99.90;;;;;;5045214;28;20036;-61
2022/01/21 03:12:38;;;;;;;5.00;0.30;;;1.50;99.90;;;;;;5036599;28;20513;-62
2022/01/21 03:15:05;;;;;;;3.95;0.43;;;1.50;99.90;;;;;;5038119;28;20044;-61
2022/01/21 03:17:31;;;;;;;8.80;0.77;;;1.50;99.90;;;;;;5041431;28;20111;-61
2022/01/21 03:19:56;;;;;;;0.80;0.20;;;1.50;99.90;;;;;;5037052;28;20600;-61
2022/01/21 03:22:22;;;;;;;2.03;0.47;;;1.50;99.90;;;;;;5034264;28;20030;-63
2022/01/21 03:24:47;;;;;;;3.88;0.77;;;1.50;99.90;;;;;;5036356;28;20037;-61
2022/01/21 03:27:13;;;;;;;6.53;0.35;;;1.40;99.90;;;;;;5037455;28;20043;-61
2022/01/21 03:29:39;;;;;;;3.20;0.50;;;1.40;99.90;;;;;;5041440;28;20037;-61
2022/01/21 03:32:05;;;;;;;2.47;0.55;;;1.40;99.90;;;;;;5039258;28;20040;-61
2022/01/21 03:34:31;;;;;;;5.15;0.45;;;1.40;99.90;;;;;;5036792;28;20033;-61
2022/01/21 03:36:56;;;;;;;3.78;0.50;;;1.40;99.90;;;;;;5040347;28;20559;-62
2022/01/21 03:39:22;;;;;;;9.45;0.90;;;1.30;99.90;;;;;;5045215;28;20033;-61
2022/01/21 03:41:48;;;;;;;10.23;0.70;;;1.40;99.90;;;;;;5040500;28;20025;-62
2022/01/21 03:44:14;;;;;;;1.58;0.40;;;1.50;99.90;;;;;;5036984;28;20034;-62
2022/01/21 03:46:39;;;;;;;2.13;0.40;;;1.50;99.90;;;;;;5037242;28;20038;-62
2022/01/21 03:49:07;;;;;;;9.25;0.30;;;1.60;99.90;;;;;;5039499;28;20040;-61
2022/01/21 03:51:33;;;;;;;6.25;1.20;;;1.60;99.90;;;;;;5040704;28;20057;-61
2022/01/21 03:53:59;;;;;;;3.10;0.50;;;1.60;99.90;;;;;;5036305;28;20448;-61
2022/01/21 03:56:24;;;;;;;2.88;0.57;;;1.70;99.90;;;;;;5033854;28;20038;-63
2022/01/21 03:58:50;;;;;;;4.72;0.60;;;1.70;99.90;;;;;;5036257;28;20042;-61
2022/01/21 04:01:18;;;;;;;4.25;0.30;;;1.80;99.90;;;;;;5044198;28;20037;-61
2022/01/21 04:03:43;;;;;;;7.47;1.13;;;1.80;99.90;;;;;;5044336;28;20108;-61
2022/01/21 04:06:09;;;;;;;4.75;0.82;;;1.80;99.90;;;;;;5036766;28;20132;-62
2022/01/21 04:08:37;;;;;;;2.80;0.45;;;1.70;99.90;;;;;;5043960;28;20412;-61
2022/01/21 04:11:04;;;;;;;16.00;1.30;;;1.70;99.90;;;;;;5040685;28;20115;-62
2022/01/21 04:13:30;;;;;;;3.05;0.82;;;1.70;99.90;;;;;;5044973;28;20150;-63
2022/01/21 04:15:57;;;;;;;3.90;0.40;;;1.60;99.90;;;;;;5038811;28;20511;-62
2022/01/21 04:18:23;;;;;;;2.78;0.73;;;1.60;99.90;;;;;;5041917;28;20124;-62
2022/01/21 04:20:50;;;;;;;2.50;0.20;;;1.50;99.90;;;;;;5042587;28;20436;-64
2022/01/21 04:23:18;;;;;;;5.82;0.95;;;1.50;99.90;;;;;;5040784;28;20366;-64
2022/01/21 04:25:44;;;;;;;3.03;0.32;;;1.40;99.90;;;;;;5043886;28;20067;-62
2022/01/21 04:28:11;;;;;;;3.25;0.85;;;1.30;99.90;;;;;;5040414;28;20033;-62
2022/01/21 04:30:37;;;;;;;3.85;0.35;;;1.30;99.90;;;;;;5043429;28;20082;-62
2022/01/21 04:33:03;;;;;;;2.78;0.60;;;1.20;99.90;;;;;;5040467;28;20482;-62
2022/01/21 04:35:29;;;;;;;3.90;0.90;;;1.20;99.90;;;;;;5042647;28;20026;-62
2022/01/21 04:37:59;;;;;;;1.08;0.20;;;1.10;99.90;;;;;;5041321;28;20041;-62
2022/01/21 04:40:29;;;;;;;1.98;0.40;;;1.10;99.90;;;;;;5041911;28;20033;-62
2022/01/21 04:48:25;;;;;;;6.55;0.63;;;1.10;99.90;;;;;;5040271;28;20037;-64
2022/01/21 04:50:57;;;;;;;4.70;0.50;;;1.20;99.90;;;;;;5039969;28;20037;-62
2022/01/21 04:53:24;;;;;;;3.95;0.82;;;1.20;99.90;;;;;;5041666;28;20160;-62
2022/01/21 04:55:50;;;;;;;10.25;0.95;;;1.20;99.90;;;;;;5041279;28;20489;-63
2022/01/21 04:58:16;;;;;;;4.85;0.80;;;1.20;99.90;;;;;;5040643;28;20083;-62
2022/01/21 05:00:43;;;;;;;2.83;0.80;;;1.20;99.90;;;;;;5041399;28;20145;-62
2022/01/21 05:03:10;;;;;;;3.47;0.43;;;1.30;99.90;;;;;;5042233;28;20029;-62
2022/01/21 05:05:37;;;;;;;2.55;0.63;;;1.30;99.90;;;;;;5035789;28;20087;-62
2022/01/21 05:08:06;;;;;;;2.80;0.47;;;1.40;99.90;;;;;;5039099;28;20394;-62
2022/01/21 05:10:32;;;;;;;4.25;0.38;;;1.50;99.90;;;;;;5041165;28;20025;-62
2022/01/21 05:12:57;;;;;;;5.20;1.65;;;1.60;99.90;;;;;;5038605;28;20033;-62
2022/01/21 05:15:41;;;;;;;5.78;1.08;;;1.60;99.90;;;;;;5045362;28;20603;-62
2022/01/21 05:18:07;;;;;;;5.20;0.63;;;1.60;99.90;;;;;;5034940;28;20057;-61
2022/01/21 05:20:33;;;;;;;4.00;0.55;;;1.60;99.90;;;;;;5042214;28;20501;-62
2022/01/21 05:22:58;;;;;;;6.03;0.88;;;1.60;99.90;;;;;;5039162;28;20448;-62
2022/01/21 05:25:24;;;;;;;9.52;0.82;;;1.60;99.90;;;;;;5041128;28;20125;-62
2022/01/21 05:27:55;;;;;;;8.15;0.88;;;1.60;99.90;;;;;;5040630;28;20073;-64
2022/01/21 05:30:20;;;;;;;4.63;1.15;;;1.60;99.90;;;;;;5040840;28;20038;-62
2022/01/21 05:32:46;;;;;;;8.65;1.15;;;1.60;99.90;;;;;;5040889;28;20052;-62
2022/01/21 05:35:12;;;;;;;4.50;0.90;;;1.50;99.90;;;;;;5041540;28;20040;-61
2022/01/21 05:37:38;;;;;;;1.23;0.40;;;1.40;99.90;;;;;;5038618;28;20477;-62
2022/01/21 05:40:06;;;;;;;8.57;0.88;;;1.40;99.90;;;;;;5041793;28;20037;-63
2022/01/21 05:42:34;;;;;;;6.43;0.55;;;1.40;99.90;;;;;;5041823;28;20029;-62
2022/01/21 05:47:28;;;;;;;5.40;1.27;;;1.50;99.90;;;;;;5039701;28;20034;-63
2022/01/21 05:49:53;;;;;;;2.28;0.65;;;1.50;99.90;;;;;;5040013;28;20053;-62
2022/01/21 05:52:20;;;;;;;2.70;0.60;;;1.50;99.90;;;;;;5040695;28;20104;-62
2022/01/21 05:54:47;;;;;;;6.25;1.08;;;1.50;99.90;;;;;;5039639;28;20034;-61
2022/01/21 05:57:16;;;;;;;3.28;1.15;;;1.60;99.90;;;;;;5039889;28;20037;-61
2022/01/21 05:59:42;;;;;;;5.47;0.90;;;1.60;99.90;;;;;;5039413;28;20034;-63
2022/01/21 06:02:08;;;;;;;8.82;1.10;;;1.60;99.90;;;;;;5041402;28;20048;-62
2022/01/21 06:04:36;;;;;;;3.53;0.50;;;1.50;99.90;;;;;;5038500;28;20049;-62
2022/01/21 06:07:04;;;;;;;8.77;0.93;;;1.50;99.90;;;;;;5030023;28;20037;-62
2022/01/21 06:09:30;;;;;;;14.52;1.20;;;1.50;99.90;;;;;;5038714;28;20036;-64
2022/01/21 06:11:55;;;;;;;5.15;0.80;;;1.50;99.90;;;;;;5037640;28;20030;-62
2022/01/21 06:14:21;;;;;;;12.10;0.80;;;1.50;99.90;;;;;;5039394;28;20037;-62
2022/01/21 06:16:47;;;;;;;7.25;1.10;;;1.50;99.90;;;;;;5039595;28;20037;-62
2022/01/21 06:19:13;;;;;;;9.98;1.80;;;1.60;99.90;;;;;;5039160;28;20087;-62
2022/01/21 06:21:39;;;;;;;4.93;0.82;;;1.60;99.90;;;;;;5040809;28;20037;-62
2022/01/21 06:24:05;;;;;;;7.70;0.80;;;1.50;99.90;;;;;;5037603;28;20033;-61
2022/01/21 06:26:30;;;;;;;1.60;0.30;;;1.50;99.90;;;;;;5033908;28;20139;-62
2022/01/21 06:28:56;;;;;;;6.32;0.88;;;1.50;99.90;;;;;;5038260;28;20512;-62
2022/01/21 06:31:21;;;;;;;12.32;0.93;;;1.40;99.90;;;;;;5040203;28;20087;-62
2022/01/21 06:33:47;;;;;;;2.92;0.47;;;1.40;99.90;;;;;;5039174;28;20044;-62
2022/01/21 06:36:13;;;;;;;10.15;1.10;;;1.30;99.90;;;;;;5039129;28;20083;-62
2022/01/21 06:38:38;;;;;;;3.08;0.30;;;1.30;99.90;;;;;;5041033;28;20041;-63
2022/01/21 06:41:04;;;;;;;4.13;0.57;;;1.30;99.90;;;;;;5037459;28;20125;-63
2022/01/21 06:43:30;;;;;;;4.55;1.63;;;1.20;99.90;;;;;;5041886;28;20030;-62
2022/01/21 06:45:55;;;;;;;4.07;1.33;;;1.30;99.90;;;;;;5040556;28;20602;-62
2022/01/21 06:48:21;;;;;;;6.38;1.00;;;1.40;99.90;;;;;;5041298;28;20426;-62
2022/01/21 06:50:46;;;;;;;2.38;0.60;;;1.50;99.90;;;;;;5038952;28;20029;-64
2022/01/21 06:53:12;;;;;;;8.15;1.20;;;1.50;99.90;;;;;;5038974;28;20176;-62
2022/01/21 06:55:38;;;;;;;3.33;0.57;;;1.50;99.90;;;;;;5040588;28;20036;-62
2022/01/21 06:58:05;;;;;;;8.25;0.63;;;1.50;99.90;;;;;;5037463;28;20033;-62
2022/01/21 07:00:31;;;;;;;3.42;0.60;;;1.50;99.90;;;;;;5040833;28;20048;-62
2022/01/21 07:02:56;;;;;;;5.07;0.57;;;1.60;99.90;;;;;;5037603;28;20053;-62
2022/01/21 07:05:25;;;;;;;5.60;0.98;;;1.60;99.90;;;;;;5039003;28;20029;-62
2022/01/21 07:07:50;;;;;;;3.90;0.50;;;1.70;99.90;;;;;;5039334;28;20447;-62
2022/01/21 07:10:16;;;;;;;6.38;0.63;;;1.70;99.90;;;;;;5040201;28;20037;-63
2022/01/21 07:12:43;;;;;;;4.03;0.47;;;1.60;99.90;;;;;;5041822;28;20560;-61
2022/01/21 07:15:11;;;;;;;5.20;0.65;;;1.60;99.90;;;;;;5036531;28;20037;-62
2022/01/21 07:17:37;;;;;;;3.85;1.02;;;1.50;99.90;;;;;;5041211;28;20033;-62
2022/01/21 07:20:04;;;;;;;4.88;0.70;;;1.50;99.90;;;;;;5040675;28;20455;-62
2022/01/21 07:22:31;;;;;;;9.05;1.30;;;1.50;99.90;;;;;;5037895;28;20033;-62
2022/01/21 07:24:57;;;;;;;10.10;0.68;;;1.40;99.90;;;;;;5040366;28;20029;-62
2022/01/21 07:27:22;;;;;;;3.33;0.43;;;1.40;99.90;;;;;;5041196;28;20037;-62
2022/01/21 07:29:48;;;;;;;9.07;0.70;;;1.40;99.90;;;;;;5040116;28;20805;-61
2022/01/21 07:32:14;;;;;;;5.13;0.70;;;1.30;99.90;;;;;;5039339;28;20408;-61
2022/01/21 07:34:39;;;;;;;9.50;0.93;;;1.30;99.90;;;;;;5042579;28;20571;-62
2022/01/21 07:37:05;;;;;;;5.95;1.23;;;1.30;99.90;;;;;;5043791;28;20055;-62
2022/01/21 07:39:31;;;;;;;5.05;1.45;;;1.20;99.90;;;;;;5041483;28;20022;-62
2022/01/21 07:41:57;;;;;;;5.18;1.08;;;1.20;99.90;;;;;;5040397;28;20033;-62
2022/01/21 07:44:22;;;;;;;6.25;1.15;;;1.20;99.90;;;;;;5041988;28;20042;-61
2022/01/21 07:46:48;;;;;;;13.10;0.93;;;1.20;99.90;;;;;;5041897;28;20065;-62
2022/01/21 07:49:15;;;;;;;3.88;0.73;;;1.20;99.90;;;;;;5042784;28;20029;-61
2022/01/21 07:51:41;;;;;;;4.68;0.98;;;1.20;99.90;;;;;;5042489;28;20059;-62
2022/01/21 07:54:08;;;;;;;7.05;0.80;;;1.20;99.90;;;;;;5043145;28;20025;-62
2022/01/21 07:56:34;;;;;;;5.35;0.93;;;1.30;99.90;;;;;;5045188;28;20040;-63
2022/01/21 07:59:03;;;;;;;5.05;0.88;;;1.20;99.90;;;;;;5040717;28;20042;-62
2022/01/21 08:01:29;;;;;;;9.18;1.77;;;1.30;99.90;;;;;;5037280;28;20512;-62
2022/01/21 08:03:54;;;;;;;4.32;1.48;;;1.30;99.90;;;;;;5044039;28;20057;-62
2022/01/21 08:06:20;;;;;;;2.78;0.82;;;1.20;99.90;;;;;;5039145;28;20037;-62
2022/01/21 08:08:46;;;;;;;5.22;1.00;;;1.30;99.90;;;;;;5031617;28;20109;-66
2022/01/21 08:11:11;;;;;;;10.32;2.03;;;1.30;99.90;;;;;;5038928;28;20033;-61
2022/01/21 08:13:37;;;;;;;14.18;1.55;;;1.30;99.90;;;;;;5030821;28;20518;-62
2022/01/21 08:16:02;;;;;;;8.98;1.60;;;1.30;99.90;;;;;;5036055;28;20033;-62
2022/01/21 08:18:28;;;;;;;9.68;1.85;;;1.40;99.90;;;;;;5031790;28;20490;-62
2022/01/21 08:20:54;;;;;;;5.13;1.17;;;1.40;99.90;;;;;;5029832;28;20052;-62
2022/01/21 08:23:19;;;;;;;2.65;0.60;;;1.40;99.90;;;;;;5037311;28;20040;-62
2022/01/21 08:25:45;;;;;;;4.47;0.77;;;1.40;99.90;;;;;;5037937;28;20060;-61
2022/01/21 08:28:11;;;;;;;8.43;1.15;;;1.50;99.90;;;;;;5037949;28;20026;-62
2022/01/21 08:30:37;;;;;;;4.10;0.85;;;1.60;99.90;;;;;;5042533;28;20033;-62
2022/01/21 08:33:03;;;;;;;7.75;1.20;;;1.60;99.90;;;;;;5039000;28;20543;-62
2022/01/21 08:35:29;;;;;;;6.20;0.77;;;1.70;99.90;;;;;;5043582;28;20036;-62
2022/01/21 08:37:54;;;;;;;10.93;0.98;;;1.70;99.90;;;;;;5032793;28;20037;-62
2022/01/21 08:40:22;;;;;;;6.05;1.15;;;1.70;99.90;;;;;;5037881;28;20033;-62
2022/01/21 08:42:47;;;;;;;10.45;2.03;;;1.80;99.90;;;;;;5042614;28;20045;-62
2022/01/21 08:45:14;;;;;;;13.23;2.40;;;1.90;99.90;;;;;;5040370;28;20086;-62
2022/01/21 08:47:41;;;;;;;8.02;0.90;;;2.10;99.90;;;;;;5039389;28;20033;-62
2022/01/21 08:50:12;;;;;;;5.53;1.50;;;2.30;99.90;;;;;;5040669;28;20033;-62
2022/01/21 08:52:41;;;;;;;12.55;1.27;;;2.50;99.90;;;;;;5039251;28;20512;-62
2022/01/21 08:55:11;;;;;;;3.80;0.82;;;2.70;99.90;;;;;;5040521;28;20048;-62
2022/01/21 08:57:39;;;;;;;;;;;2.90;99.90;;;;;;5040043;28;20090;-62
2022/01/21 09:00:25;;;;;;;9.90;2.30;;;3.00;99.90;;;;;;5038947;28;20257;-62
2022/01/21 09:02:51;;;;;;;8.18;1.00;;;3.10;99.90;;;;;;5041384;28;20040;-62
2022/01/21 09:05:16;;;;;;;14.63;1.52;;;3.10;99.90;;;;;;5038058;28;20405;-62
2022/01/21 09:07:42;;;;;;;5.15;1.35;;;3.10;99.90;;;;;;5040943;28;20033;-62
2022/01/21 09:10:09;;;;;;;7.00;2.30;;;3.20;99.90;;;;;;5038691;28;20037;-62
2022/01/21 09:12:35;;;;;;;8.13;2.05;;;3.10;99.90;;;;;;5037014;28;20168;-61
2022/01/21 09:15:01;;;;;;;10.13;3.47;;;3.10;99.90;;;;;;5027514;28;20124;-62
2022/01/21 09:17:26;;;;;;;14.82;1.77;;;3.20;99.90;;;;;;5035855;28;20034;-63
2022/01/21 09:19:52;;;;;;;10.43;1.30;;;3.20;99.90;;;;;;5034493;28;20170;-62
2022/01/21 09:22:18;;;;;;;10.10;1.65;;;3.20;99.90;;;;;;5034346;28;20037;-62
2022/01/21 09:24:43;;;;;;;5.05;0.80;;;3.20;99.90;;;;;;5033320;28;20037;-61
2022/01/21 09:27:09;;;;;;;5.97;0.90;;;3.20;99.90;;;;;;5033596;28;20034;-61
2022/01/21 09:29:35;;;;;;;8.27;1.38;;;3.30;99.90;;;;;;5034514;28;20139;-62
2022/01/21 09:32:03;;;;;;;7.80;2.08;;;3.50;99.90;;;;;;5032444;28;20079;-63
2022/01/21 09:34:29;;;;;;;2.72;0.98;;;3.80;99.90;;;;;;5032383;28;20038;-63
2022/01/21 09:36:57;;;;;;;7.35;1.48;;;4.00;99.90;;;;;;5033853;28;20025;-62
2022/01/21 09:39:24;;;;;;;10.90;1.40;;;4.10;99.90;;;;;;5033139;28;20124;-61
2022/01/21 09:41:51;;;;;;;7.40;1.15;;;4.30;99.90;;;;;;5038718;28;20033;-62
2022/01/21 09:44:19;;;;;;;20.77;2.10;;;4.40;99.90;;;;;;5034304;28;20036;-61
2022/01/21 09:46:49;;;;;;;11.73;1.80;;;4.60;99.90;;;;;;5036305;28;20503;-62
2022/01/21 09:49:27;;;;;;;10.90;1.73;;;4.70;99.90;;;;;;5033222;28;20233;-61
2022/01/21 09:52:05;;;;;;;8.98;1.98;;;4.90;99.90;;;;;;5031971;28;20029;-63
2022/01/21 09:54:33;;;;;;;4.93;1.17;;;5.10;99.90;;;;;;5032966;28;20485;-63
2022/01/21 09:57:01;;;;;;;20.42;1.90;;;5.20;99.90;;;;;;5039186;28;20512;-61
2022/01/21 09:59:30;;;;;;;12.73;1.83;;;5.20;99.90;;;;;;5033128;28;20060;-62
2022/01/21 10:02:00;;;;;;;12.02;1.95;;;5.20;99.90;;;;;;5034231;28;20025;-62
2022/01/21 10:04:28;;;;;;;11.90;1.10;;;5.20;99.90;;;;;;5038941;28;20432;-62
2022/01/21 10:06:55;;;;;;;16.27;1.60;;;5.30;99.90;;;;;;5026232;28;20037;-62
2022/01/21 10:09:23;;;;;;;8.70;1.42;;;5.30;99.90;;;;;;5034109;28;20401;-62
2022/01/21 10:11:50;;;;;;;14.25;2.13;;;5.40;99.90;;;;;;5047520;23;20132;-69
2022/01/21 10:14:21;;;;;;;15.35;1.80;;;5.40;99.90;;;;;;5020068;28;20505;-67
2022/01/21 10:16:48;;;;;;;6.03;1.20;;;5.40;99.90;;;;;;5021683;28;20047;-67
2022/01/21 10:19:25;;;;;;;9.85;1.58;;;5.50;99.90;;;;;;5010648;28;20104;-67
2022/01/21 10:22:06;;;;;;;7.80;1.20;;;5.50;99.90;;;;;;5026936;28;20489;-69
2022/01/21 10:24:34;;;;;;;20.13;2.33;;;5.60;99.90;;;;;;5022095;28;20026;-68
2022/01/21 10:27:00;;;;;;;11.05;1.48;;;5.60;99.90;;;;;;5026481;28;20528;-69
2022/01/21 10:29:40;;;;;;;7.00;1.45;;;5.60;99.90;;;;;;5028054;28;20045;-69
2022/01/21 10:32:07;;;;;;;9.25;1.60;;;5.50;99.90;;;;;;5025409;28;20212;-69
2022/01/21 10:34:43;;;;;;;6.63;1.25;;;5.50;99.90;;;;;;5027979;28;20038;-68
2022/01/21 10:37:35;;;;;;;8.63;2.17;;;5.50;99.90;;;;;;5025590;28;20519;-69
2022/01/21 10:40:10;;;;;;;13.50;1.52;;;5.70;99.90;;;;;;5025500;28;20522;-67
2022/01/21 10:42:36;;;;;;;6.22;1.10;;;5.90;99.90;;;;;;5025719;28;20038;-66
2022/01/21 10:45:05;;;;;;;6.80;1.23;;;6.10;99.90;;;;;;5027243;28;20040;-68
2022/01/21 10:47:50;;;;;;;21.27;1.25;;;6.30;99.90;;;;;;5027948;28;20492;-70
2022/01/21 10:50:23;;;;;;;8.95;1.45;;;6.40;99.90;;;;;;5015836;28;20128;-68
2022/01/21 10:52:52;;;;;;;8.48;1.70;;;6.40;99.90;;;;;;5026394;28;20037;-69
2022/01/21 10:55:32;;;;;;;3.90;1.02;;;6.50;99.90;;;;;;5028109;28;20495;-69
2022/01/21 10:58:14;;;;;;;7.50;1.35;;;6.60;99.90;;;;;;5025632;28;20037;-68
2022/01/21 11:00:58;;;;;;;4.63;0.55;;;6.80;99.90;;;;;;5024801;28;20057;-69
2022/01/21 11:03:24;;;;;;;7.57;0.80;;;6.80;99.90;;;;;;5008156;28;20398;-69
2022/01/21 11:05:54;;;;;;;7.03;1.13;;;6.80;99.90;;;;;;5027266;28;20034;-67
2022/01/21 11:08:26;;;;;;;2.90;0.40;;;6.80;99.90;;;;;;5028773;28;20087;-69
2022/01/21 11:10:52;;;;;;;2.70;0.70;;;6.70;99.90;;;;;;5029930;28;20029;-68
2022/01/21 11:13:20;;;;;;;8.18;0.80;;;6.70;99.90;;;;;;5032248;28;20095;-68
2022/01/21 11:15:48;;;;;;;5.43;0.82;;;6.80;99.90;;;;;;5011998;28;20545;-69
2022/01/21 11:18:16;;;;;;;5.03;0.52;;;6.90;99.90;;;;;;5021465;28;20048;-69
2022/01/21 11:20:46;;;;;;;4.72;0.50;;;6.90;99.90;;;;;;5032091;28;20494;-68
2022/01/21 11:23:12;;;;;;;6.87;1.07;;;6.90;99.90;;;;;;5024264;28;20038;-69
2022/01/21 11:25:51;;;;;;;10.30;1.45;;;6.90;99.90;;;;;;5031201;28;20044;-68
2022/01/21 11:28:17;;;;;;;14.07;1.75;;;7.00;99.90;;;;;;5022108;28;20436;-69
2022/01/21 11:30:45;;;;;;;6.13;0.70;;;7.10;99.90;;;;;;5029923;28;20034;-63
2022/01/21 11:33:10;;;;;;;8.80;1.13;;;7.00;99.90;;;;;;5031191;28;20441;-70
2022/01/21 11:35:37;;;;;;;20.17;1.35;;;7.10;99.90;;;;;;5031353;28;20038;-69
2022/01/21 11:38:10;;;;;;;8.98;1.30;;;7.10;99.90;;;;;;5030624;28;20046;-68
2022/01/21 11:40:37;;;;;;;10.38;0.95;;;7.10;99.90;;;;;;5028646;28;20052;-69
2022/01/21 11:43:04;;;;;;;16.17;1.30;;;7.20;99.90;;;;;;5020746;28;20048;-68
2022/01/21 11:50:29;;;;;;;8.95;0.95;;;7.00;99.90;;;;;;5030130;28;20120;-68
2022/01/21 11:52:55;;;;;;;7.20;1.00;;;6.90;99.90;;;;;;5030614;28;20038;-69
2022/01/21 11:55:40;;;;;;;7.20;0.90;;;6.80;99.90;;;;;;5027594;28;20030;-69
2022/01/21 11:58:17;;;;;;;9.90;0.80;;;6.90;99.90;;;;;;5028009;28;20041;-69
2022/01/21 12:00:48;;;;;;;13.02;1.95;;;7.00;99.90;;;;;;5027779;28;20040;-69
2022/01/21 12:03:15;;;;;;;10.23;0.98;;;7.10;99.90;;;;;;5030213;28;20512;-68
2022/01/21 12:05:41;;;;;;;12.02;1.30;;;7.30;99.90;;;;;;5013359;28;20057;-66
2022/01/21 12:08:06;;;;;;;7.70;1.00;;;7.50;99.90;;;;;;5031053;28;20115;-69
2022/01/21 12:10:35;;;;;;;9.05;1.08;;;7.70;99.90;;;;;;5020688;28;20049;-66
2022/01/21 12:13:12;;;;;;;11.48;1.20;;;7.80;99.90;;;;;;5030263;28;20060;-67
2022/01/21 12:21:00;;;;;;;1.90;0.52;;;7.70;99.90;;;;;;5027612;28;20058;-69
2022/01/21 12:23:27;;;;;;;8.57;1.70;;;7.70;99.90;;;;;;5017803;28;20044;-69
2022/01/21 12:26:14;;;;;;;9.30;1.50;;;7.50;99.90;;;;;;5024518;28;20045;-69
2022/01/21 12:29:02;;;;;;;9.00;2.10;;;7.30;99.90;;;;;;5030503;28;20056;-71
2022/01/21 12:31:31;;;;;;;8.13;1.40;;;7.10;99.90;;;;;;5002457;28;20021;-67
2022/01/21 12:34:08;;;;;;;12.90;1.17;;;7.00;99.90;;;;;;5030721;28;20041;-67
2022/01/21 12:36:43;;;;;;;9.98;1.38;;;6.90;99.90;;;;;;5026259;28;20176;-69
2022/01/21 12:39:35;;;;;;;9.57;2.25;;;6.80;99.90;;;;;;5019284;28;20650;-68
2022/01/21 12:42:19;;;;;;;14.40;2.45;;;6.90;99.90;;;;;;5030302;28;20029;-66
2022/01/21 12:44:49;;;;;;;12.52;1.58;;;6.80;99.90;;;;;;5034542;28;20091;-68
2022/01/21 12:47:43;;;;;;;15.95;1.10;;;6.80;99.90;;;;;;5021955;28;20033;-67
2022/01/21 12:50:34;;;;;;;13.35;1.55;;;6.80;99.90;;;;;;5004898;28;20037;-69
2022/01/21 12:58:22;;;;;;;7.53;1.25;;;6.80;99.90;;;;;;5019400;28;20065;-67
2022/01/21 13:00:48;;;;;;;10.27;2.53;;;6.80;99.90;;;;;;5020683;28;20033;-68
2022/01/21 13:03:29;;;;;;;9.32;1.15;;;6.90;99.90;;;;;;5019038;28;20034;-68
2022/01/21 13:06:09;;;;;;;10.95;1.48;;;6.80;99.90;;;;;;5018823;28;20042;-67
2022/01/21 13:09:10;;;;;;;7.28;1.08;;;6.90;99.90;;;;;;5004214;28;20033;-68
2022/01/21 13:11:53;;;;;;;6.97;0.73;;;6.80;99.90;;;;;;5025438;28;20132;-69
2022/01/21 13:17:15;;;;;;;11.95;1.08;;;6.90;99.90;;;;;;5027099;28;20040;-68
2022/01/21 13:19:48;;;;;;;6.57;1.23;;;6.90;99.90;;;;;;5040514;28;20417;-66
2022/01/21 13:22:29;;;;;;;17.60;1.45;;;6.90;99.90;;;;;;5025345;28;20088;-70
2022/01/21 13:25:08;;;;;;;4.20;0.70;;;6.90;99.90;;;;;;5015101;28;20037;-64
2022/01/21 13:27:47;;;;;;;11.50;1.45;;;6.90;99.90;;;;;;5019165;28;20490;-68
2022/01/21 13:30:14;;;;;;;8.63;1.25;;;6.90;99.90;;;;;;5026018;28;20030;-69
2022/01/21 13:32:41;;;;;;;15.63;1.48;;;6.90;99.90;;;;;;5016637;28;20064;-68
2022/01/21 13:35:12;;;;;;;11.23;1.17;;;7.00;99.90;;;;;;5026663;28;20061;-68
2022/01/21 13:37:40;;;;;;;10.63;1.88;;;7.00;99.90;;;;;;5026587;28;20041;-69
2022/01/21 13:40:08;;;;;;;9.35;1.73;;;7.00;99.90;;;;;;5027387;28;20064;-68
2022/01/21 13:42:35;;;;;;;17.92;1.45;;;7.00;99.90;;;;;;5026321;28;20065;-68
2022/01/21 13:45:08;;;;;;;11.52;1.95;;;7.00;99.90;;;;;;5026826;28;20460;-67
2022/01/21 13:47:33;;;;;;;14.63;1.10;;;7.00;99.90;;;;;;5025812;28;20152;-68
2022/01/21 13:50:22;;;;;;;16.40;2.38;;;7.00;99.90;;;;;;5009758;28;20160;-69
2022/01/21 13:53:00;;;;;;;10.77;1.75;;;7.00;99.90;;;;;;5011379;28;20037;-65
2022/01/21 13:55:32;;;;;;;14.55;2.08;;;7.00;99.90;;;;;;5024066;28;20145;-68
2022/01/21 13:58:01;;;;;;;5.05;1.40;;;7.00;99.90;;;;;;5010053;28;20100;-69
2022/01/21 14:00:30;;;;;;;9.25;0.90;;;6.90;99.90;;;;;;5031247;28;20030;-68
2022/01/21 14:03:05;;;;;;;8.65;1.55;;;6.90;99.90;;;;;;5017426;28;20045;-70
2022/01/21 14:06:12;;;;;;;7.93;1.17;;;6.90;99.90;;;;;;5019450;28;20486;-68
2022/01/21 14:08:45;;;;;;;6.03;1.08;;;6.90;99.90;;;;;;5005775;28;20041;-68
2022/01/21 14:11:12;;;;;;;10.82;1.00;;;6.80;99.90;;;;;;5017795;28;20125;-69